createdAt,value
2023-05-12T00:01:44.678Z,100720.75
2023-05-12T00:04:28.589Z,100722.84
2023-05-12T00:07:12.533Z,100722.00
2023-05-12T00:09:57.675Z,100665.19
2023-05-12T00:12:41.469Z,100688.53
2023-05-12T00:15:25.329Z,100720.56
2023-05-12T00:18:09.405Z,100725.81
2023-05-12T00:20:54.443Z,100722.63
2023-05-12T00:23:38.708Z,100715.06
2023-05-12T00:26:23.816Z,100709.78
2023-05-12T00:29:08.528Z,100702.22
2023-05-12T00:31:52.533Z,100716.03
2023-05-12T00:34:36.417Z,100725.28
2023-05-12T00:37:20.316Z,100720.88
2023-05-12T00:40:05.236Z,100718.50
2023-05-12T00:42:50.963Z,100713.03
2023-05-12T00:45:34.853Z,100716.09
2023-05-12T00:48:18.705Z,100705.16
2023-05-12T00:51:04.033Z,100717.13
2023-05-12T00:53:51.370Z,100723.03
2023-05-12T00:56:39.430Z,100706.31
2023-05-12T00:59:26.290Z,100718.84
2023-05-12T01:02:10.395Z,100714.44
2023-05-12T01:04:55.485Z,100715.41
2023-05-12T01:07:40.463Z,100667.53
2023-05-12T01:10:24.857Z,100711.22
2023-05-12T01:13:09.108Z,100704.13
2023-05-12T01:15:57.321Z,100672.50
2023-05-12T01:18:49.546Z,100708.72
2023-05-12T01:21:33.603Z,100671.91
2023-05-12T01:24:21.897Z,100668.44
2023-05-12T01:27:08.250Z,100674.72
2023-05-12T01:29:53.748Z,100704.47
2023-05-12T01:32:39.726Z,100702.53
2023-05-12T01:35:23.889Z,100701.00
2023-05-12T01:38:14.457Z,100698.16
2023-05-12T01:40:58.491Z,100691.22
2023-05-12T01:43:43.683Z,100685.22
2023-05-12T01:46:27.939Z,100679.25
2023-05-12T01:49:15.120Z,100678.13
2023-05-12T01:51:59.036Z,100691.22
2023-05-12T01:54:46.824Z,100692.41
2023-05-12T01:57:31.823Z,100685.66
2023-05-12T02:00:19.326Z,100689.44
2023-05-12T02:03:05.873Z,100687.28
2023-05-12T02:05:49.979Z,100683.69
2023-05-12T02:08:33.789Z,100652.66
2023-05-12T02:11:17.980Z,100693.69
2023-05-12T02:14:01.940Z,100676.06
2023-05-12T02:16:52.590Z,100673.38
2023-05-12T02:19:38.079Z,100677.59
2023-05-12T02:22:21.988Z,100671.56
2023-05-12T02:25:06.789Z,100678.75
2023-05-12T02:27:51.658Z,100684.53
2023-05-12T02:30:35.645Z,100681.31
2023-05-12T02:33:23.013Z,100688.84
2023-05-12T02:36:07.832Z,100681.25
2023-05-12T02:38:52.182Z,100682.94
2023-05-12T02:41:36.231Z,100675.69
2023-05-12T02:44:22.411Z,100688.91
2023-05-12T02:47:07.511Z,100679.13
2023-05-12T02:49:52.706Z,100676.44
2023-05-12T02:52:36.744Z,100679.28
2023-05-12T02:55:20.653Z,100690.13
2023-05-12T02:58:04.748Z,100684.06
2023-05-12T03:00:54.154Z,100684.13
2023-05-12T03:03:44.216Z,100685.31
2023-05-12T03:06:31.080Z,100700.91
2023-05-12T03:09:14.928Z,100701.00
2023-05-12T03:11:58.844Z,100691.03
2023-05-12T03:14:43.252Z,100678.69
2023-05-12T03:17:27.246Z,100702.06
2023-05-12T03:20:12.288Z,100700.59
2023-05-12T03:22:57.829Z,100697.53
2023-05-12T03:25:41.701Z,100700.28
2023-05-12T03:28:26.319Z,100704.47
2023-05-12T03:31:10.604Z,100714.22
2023-05-12T03:33:54.709Z,100705.91
2023-05-12T03:36:38.788Z,100712.72
2023-05-12T03:39:25.009Z,100711.13
2023-05-12T03:42:09.600Z,100718.00
2023-05-12T03:44:53.474Z,100709.03
2023-05-12T03:47:37.693Z,100701.47
2023-05-12T03:50:22.369Z,100702.44
2023-05-12T03:53:06.594Z,100723.91
2023-05-12T03:55:53.437Z,100705.03
2023-05-12T03:58:37.512Z,100711.16
2023-05-12T04:01:21.876Z,100710.56
2023-05-12T04:04:06.173Z,100714.19
2023-05-12T04:06:50.158Z,100706.50
2023-05-12T04:09:35.916Z,100702.41
2023-05-12T04:12:22.646Z,100707.94
2023-05-12T04:15:08.116Z,100713.81
2023-05-12T04:17:52.151Z,100714.13
2023-05-12T04:20:36.702Z,100713.66
2023-05-12T04:23:20.827Z,100716.22
2023-05-12T04:26:06.153Z,100722.09
2023-05-12T04:28:51.980Z,100719.97
2023-05-12T04:31:36.285Z,100715.31
2023-05-12T04:34:21.625Z,100719.75
2023-05-12T04:37:06.819Z,100723.91
2023-05-12T04:39:51.522Z,100716.06
2023-05-12T04:42:36.232Z,100726.59
2023-05-12T04:45:22.144Z,100713.41
2023-05-12T04:48:07.247Z,100713.81
2023-05-12T04:50:51.182Z,100720.09
2023-05-12T04:53:36.376Z,100715.53
2023-05-12T04:56:20.339Z,100689.22
2023-05-12T04:59:04.326Z,100715.59
2023-05-12T05:01:49.728Z,100705.78
2023-05-12T05:04:33.840Z,100706.72
2023-05-12T05:07:18.333Z,100685.59
2023-05-12T05:10:02.328Z,100663.72
2023-05-12T05:12:48.758Z,100718.09
2023-05-12T05:15:33.565Z,100715.19
2023-05-12T05:18:20.133Z,100704.91
2023-05-12T05:21:05.904Z,100719.50
2023-05-12T05:23:49.709Z,100644.28
2023-05-12T05:26:34.026Z,100728.34
2023-05-12T05:29:18.029Z,100733.88
2023-05-12T05:32:01.985Z,100724.09
2023-05-12T05:34:47.736Z,100743.63
2023-05-12T05:37:31.776Z,100750.00
2023-05-12T05:40:15.824Z,100732.22
2023-05-12T05:42:59.988Z,100740.22
2023-05-12T05:45:43.870Z,100747.00
2023-05-12T05:48:28.258Z,100714.94
2023-05-12T05:51:13.826Z,100736.84
2023-05-12T05:53:57.817Z,100729.19
2023-05-12T05:56:41.716Z,100745.13
2023-05-12T05:59:25.639Z,100747.66
2023-05-12T06:02:09.644Z,100738.88
2023-05-12T06:04:54.107Z,100706.56
2023-05-12T06:07:39.290Z,100737.25
2023-05-12T06:10:23.470Z,100723.34
2023-05-12T06:13:07.425Z,100732.38
2023-05-12T06:15:51.334Z,100743.88
2023-05-12T06:18:38.228Z,100735.66
2023-05-12T06:21:22.262Z,100743.94
2023-05-12T06:24:07.839Z,100732.94
2023-05-12T06:26:51.772Z,100745.78
2023-05-12T06:29:35.964Z,100722.75
2023-05-12T06:32:19.821Z,100748.66
2023-05-12T06:35:03.706Z,100747.97
2023-05-12T06:37:49.855Z,100743.38
2023-05-12T06:40:35.413Z,100735.03
2023-05-12T06:43:19.557Z,100738.84
2023-05-12T06:46:03.428Z,100740.44
2023-05-12T06:48:47.405Z,100742.66
2023-05-12T06:51:31.535Z,100747.03
2023-05-12T06:54:15.512Z,100747.66
2023-05-12T06:57:00.758Z,100739.88
2023-05-12T06:59:44.574Z,100741.75
2023-05-12T07:02:28.713Z,100752.47
2023-05-12T07:05:13.040Z,100751.72
2023-05-12T07:07:56.900Z,100746.09
2023-05-12T07:10:40.663Z,100751.16
2023-05-12T07:13:25.889Z,100746.47
2023-05-12T07:16:10.104Z,100749.38
2023-05-12T07:18:53.948Z,100755.00
2023-05-12T07:21:38.074Z,100751.66
2023-05-12T07:24:21.911Z,100761.03
2023-05-12T07:27:06.242Z,100764.41
2023-05-12T07:29:51.394Z,100739.81
2023-05-12T07:32:35.293Z,100759.34
2023-05-12T07:35:19.439Z,100761.47
2023-05-12T07:38:04.706Z,100755.72
2023-05-12T07:40:48.971Z,100761.69
2023-05-12T07:43:32.739Z,100765.53
2023-05-12T07:46:18.087Z,100759.16
2023-05-12T07:49:02.030Z,100760.13
2023-05-12T07:51:45.968Z,100754.69
2023-05-12T07:54:29.745Z,100760.81
2023-05-12T07:57:13.499Z,100759.88
2023-05-12T07:59:57.337Z,100680.91
2023-05-12T08:02:43.525Z,100771.50
2023-05-12T08:05:27.449Z,100771.13
2023-05-12T08:08:16.607Z,100771.00
2023-05-12T08:11:00.772Z,100777.81
2023-05-12T08:13:44.630Z,100780.72
2023-05-12T08:16:28.637Z,100788.50
2023-05-12T08:19:14.433Z,100780.19
2023-05-12T08:21:58.264Z,100783.22
2023-05-12T08:24:42.162Z,100782.72
2023-05-12T08:27:26.098Z,100789.56
2023-05-12T08:30:10.774Z,100791.78
2023-05-12T08:32:55.663Z,100774.50
2023-05-12T08:35:41.042Z,100768.13
2023-05-12T08:38:24.964Z,100789.25
2023-05-12T08:41:17.912Z,100780.16
2023-05-12T08:44:02.306Z,100794.44
2023-05-12T08:46:47.166Z,100796.94
2023-05-12T08:49:32.639Z,100792.06
2023-05-12T08:52:21.748Z,100785.81
2023-05-12T08:55:07.029Z,100789.47
2023-05-12T08:57:51.430Z,100783.81
2023-05-12T09:00:36.875Z,100793.28
2023-05-12T09:03:22.879Z,100788.84
2023-05-12T09:06:07.728Z,100807.72
2023-05-12T09:08:53.248Z,100795.88
2023-05-12T09:11:37.007Z,100783.59
2023-05-12T09:14:26.530Z,100798.09
2023-05-12T09:17:12.349Z,100802.16
2023-05-12T09:19:56.327Z,100790.00
2023-05-12T09:22:40.143Z,100796.00
2023-05-12T09:25:25.376Z,100736.63
2023-05-12T09:28:10.178Z,100738.69
2023-05-12T09:30:54.013Z,100787.72
2023-05-12T09:33:37.917Z,100774.19
2023-05-12T09:36:23.305Z,100775.81
2023-05-12T09:39:09.106Z,100778.16
2023-05-12T09:41:54.685Z,100785.84
2023-05-12T09:44:40.718Z,100777.22
2023-05-12T09:47:29.255Z,100782.72
2023-05-12T09:50:13.252Z,100771.88
2023-05-12T09:52:59.878Z,100776.84
2023-05-12T09:55:44.910Z,100768.69
2023-05-12T09:58:31.387Z,100770.41
2023-05-12T10:01:23.471Z,100771.00
2023-05-12T10:04:09.191Z,100776.88
2023-05-12T10:06:54.096Z,100771.78
2023-05-12T10:09:40.400Z,100773.47
2023-05-12T10:12:24.299Z,100776.69
2023-05-12T10:15:11.833Z,100774.59
2023-05-12T10:17:56.390Z,100770.63
2023-05-12T10:20:41.549Z,100769.44
2023-05-12T10:23:27.944Z,100788.00
2023-05-12T10:26:12.578Z,100767.03
2023-05-12T10:28:56.979Z,100774.72
2023-05-12T10:31:42.340Z,100763.34
2023-05-12T10:34:32.157Z,100766.44
2023-05-12T10:37:16.131Z,100778.53
2023-05-12T10:40:02.785Z,100778.22
2023-05-12T10:42:52.808Z,100774.06
2023-05-12T10:45:37.867Z,100741.53
2023-05-12T10:48:23.132Z,100773.47
2023-05-12T10:51:10.774Z,100749.97
2023-05-12T10:53:59.515Z,100778.34
2023-05-12T10:56:45.245Z,100773.09
2023-05-12T10:59:32.307Z,100781.84
2023-05-12T11:02:18.571Z,100767.41
2023-05-12T11:05:06.784Z,100764.59
2023-05-12T11:07:52.506Z,100756.00
2023-05-12T11:10:36.904Z,100734.75
2023-05-12T11:13:21.492Z,100768.22
2023-05-12T11:16:05.968Z,100774.94
2023-05-12T11:18:51.690Z,100764.59
2023-05-12T11:21:37.261Z,100735.34
2023-05-12T11:24:24.396Z,100764.34
2023-05-12T11:27:13.450Z,100758.34
2023-05-12T11:29:58.887Z,100777.63
2023-05-12T11:32:43.181Z,100781.28
2023-05-12T11:35:32.331Z,100777.78
2023-05-12T11:38:18.448Z,100775.59
2023-05-12T11:41:02.446Z,100783.69
2023-05-12T11:43:46.411Z,100782.34
2023-05-12T11:46:31.273Z,100775.38
2023-05-12T11:49:15.073Z,100763.97
2023-05-12T11:52:01.255Z,100777.28
2023-05-12T11:54:52.001Z,100769.38
2023-05-12T11:57:37.331Z,100777.94
2023-05-12T12:00:29.351Z,100765.38
2023-05-12T12:03:14.991Z,100771.78
2023-05-12T12:06:01.128Z,100768.56
2023-05-12T12:08:55.323Z,100771.41
2023-05-12T12:11:40.663Z,100738.56
2023-05-12T12:14:25.037Z,100768.97
2023-05-12T12:17:08.908Z,100759.34
2023-05-12T12:19:52.721Z,100744.84
2023-05-12T12:22:36.579Z,100769.63
2023-05-12T12:25:21.297Z,100767.38
2023-05-12T12:28:06.765Z,100749.63
2023-05-12T12:30:50.673Z,100743.75
2023-05-12T12:33:34.602Z,100756.44
2023-05-12T12:36:18.718Z,100763.50
2023-05-12T12:39:03.010Z,100759.91
2023-05-12T12:41:48.158Z,100762.91
2023-05-12T12:44:33.559Z,100712.09
2023-05-12T12:47:17.760Z,100731.81
2023-05-12T12:50:01.720Z,100762.78
2023-05-12T12:52:48.133Z,100733.50
2023-05-12T12:55:32.108Z,100756.50
2023-05-12T12:58:16.030Z,100754.94
2023-05-12T13:01:01.374Z,100753.41
2023-05-12T13:03:45.389Z,100749.63
2023-05-12T13:06:29.357Z,100730.56
2023-05-12T13:09:13.996Z,100745.22
2023-05-12T13:11:58.174Z,100748.94
2023-05-12T13:14:42.048Z,100735.91
2023-05-12T13:17:27.559Z,100741.09
2023-05-12T13:20:12.510Z,100753.78
2023-05-12T13:22:56.436Z,100744.22
2023-05-12T13:25:40.409Z,100749.78
2023-05-12T13:28:24.301Z,100735.69
2023-05-12T13:31:08.442Z,100736.63
2023-05-12T13:33:53.831Z,100728.34
2023-05-12T13:36:37.975Z,100743.44
2023-05-12T13:39:21.986Z,100744.00
2023-05-12T13:42:06.285Z,100727.53
2023-05-12T13:44:50.254Z,100742.78
2023-05-12T13:47:34.389Z,100748.16
2023-05-12T13:50:19.812Z,100705.81
2023-05-12T13:53:03.715Z,100749.16
2023-05-12T13:55:47.509Z,100746.31
2023-05-12T13:58:31.268Z,100758.63
2023-05-12T14:01:16.123Z,100768.59
2023-05-12T14:04:00.017Z,100752.47
2023-05-12T14:06:45.957Z,100762.38
2023-05-12T14:09:29.800Z,100749.94
2023-05-12T14:12:13.961Z,100757.00
2023-05-12T14:15:07.327Z,100757.38
2023-05-12T14:18:01.869Z,100763.41
2023-05-12T14:20:45.925Z,100768.69
2023-05-12T14:23:31.371Z,100749.91
2023-05-12T14:26:15.555Z,100730.72
2023-05-12T14:28:59.475Z,100774.09
2023-05-12T14:31:43.385Z,100774.28
2023-05-12T14:34:27.232Z,100784.41
2023-05-12T14:37:11.160Z,100776.59
2023-05-12T14:39:56.806Z,100778.34
2023-05-12T14:42:40.789Z,100752.63
2023-05-12T14:45:25.915Z,100773.22
2023-05-12T14:48:10.308Z,100788.50
2023-05-12T14:50:54.300Z,100778.06
2023-05-12T14:53:38.179Z,100781.34
2023-05-12T14:56:23.407Z,100766.44
2023-05-12T14:59:07.208Z,100765.34
2023-05-12T15:01:51.339Z,100742.78
2023-05-12T15:04:35.283Z,100761.09
2023-05-12T15:07:19.198Z,100753.16
2023-05-12T15:10:03.289Z,100764.06
2023-05-12T15:12:49.729Z,100750.28
2023-05-12T15:15:34.250Z,100756.66
2023-05-12T15:18:18.068Z,100758.00
2023-05-12T15:21:01.980Z,100753.44
2023-05-12T15:23:45.828Z,100750.91
2023-05-12T15:26:33.981Z,100753.44
2023-05-12T15:29:20.775Z,100735.59
2023-05-12T15:32:05.051Z,100737.69
2023-05-12T15:34:49.044Z,100747.63
2023-05-12T15:37:32.988Z,100715.78
2023-05-12T15:40:17.350Z,100736.72
2023-05-12T15:43:01.408Z,100697.94
2023-05-12T15:45:47.275Z,100706.41
2023-05-12T15:48:33.806Z,100734.56
2023-05-12T15:51:18.372Z,100732.03
2023-05-12T15:54:02.864Z,100732.66
2023-05-12T15:56:49.422Z,100752.41
2023-05-12T15:59:33.729Z,100749.84
2023-05-12T16:02:19.002Z,100751.25
2023-05-12T16:05:03.007Z,100758.31
2023-05-12T16:07:48.681Z,100764.41
2023-05-12T16:10:32.935Z,100754.38
2023-05-12T16:13:17.158Z,100753.59
2023-05-12T16:16:01.310Z,100755.94
2023-05-12T16:18:47.016Z,100736.09
2023-05-12T16:21:32.158Z,100747.63
2023-05-12T16:24:16.478Z,100700.44
2023-05-12T16:27:00.365Z,100774.31
2023-05-12T16:29:45.867Z,100764.06
2023-05-12T16:32:29.966Z,100744.63
2023-05-12T16:35:15.186Z,100768.53
2023-05-12T16:37:58.921Z,100772.59
2023-05-12T16:40:42.916Z,100770.53
2023-05-12T16:43:26.683Z,100779.25
2023-05-12T16:46:10.612Z,100784.34
2023-05-12T16:48:54.595Z,100786.56
2023-05-12T16:51:39.773Z,100786.59
2023-05-12T16:54:24.098Z,100793.28
2023-05-12T16:57:08.002Z,100794.03
2023-05-12T16:59:51.810Z,100790.72
2023-05-12T17:02:35.709Z,100792.09
2023-05-12T17:05:19.947Z,100785.31
2023-05-12T17:08:05.778Z,100790.50
2023-05-12T17:10:49.717Z,100794.63
2023-05-12T17:13:36.780Z,100773.63
2023-05-12T17:16:20.756Z,100776.38
2023-05-12T17:21:51.531Z,100803.47
2023-05-12T17:24:37.135Z,100793.00
2023-05-12T17:27:20.903Z,100809.53
2023-05-12T17:30:06.468Z,100807.44
2023-05-12T17:32:50.808Z,100813.75
2023-05-12T17:35:34.663Z,100813.25
2023-05-12T17:38:20.101Z,100817.75
2023-05-12T17:41:05.338Z,100825.88
2023-05-12T17:43:49.097Z,100819.47
2023-05-12T17:46:33.004Z,100823.09
2023-05-12T17:49:16.980Z,100823.28
2023-05-12T17:52:00.943Z,100825.66
2023-05-12T17:54:45.467Z,100828.06
2023-05-12T17:57:31.427Z,100828.47
2023-05-12T18:00:16.978Z,100822.47
2023-05-12T18:03:01.170Z,100827.72
2023-05-12T18:05:45.345Z,100829.88
2023-05-12T18:08:29.243Z,100822.66
2023-05-12T18:11:13.106Z,100819.56
2023-05-12T18:13:58.790Z,100832.97
2023-05-12T18:16:42.823Z,100810.19
2023-05-12T18:19:27.378Z,100789.47
2023-05-12T18:22:11.292Z,100818.25
2023-05-12T18:24:55.248Z,100829.22
2023-05-12T18:27:38.976Z,100830.22
2023-05-12T18:30:24.166Z,100839.75
2023-05-12T18:33:08.098Z,100843.09
2023-05-12T18:35:52.553Z,100851.75
2023-05-12T18:38:36.259Z,100849.78
2023-05-12T18:41:20.052Z,100848.66
2023-05-12T18:44:04.305Z,100844.81
2023-05-12T18:46:49.772Z,100844.63
2023-05-12T18:49:33.654Z,100837.44
2023-05-12T18:52:17.660Z,100823.63
2023-05-12T18:55:01.687Z,100835.47
2023-05-12T18:57:47.479Z,100835.06
2023-05-12T19:00:35.603Z,100835.25
2023-05-12T19:03:21.318Z,100827.91
2023-05-12T19:06:05.289Z,100840.03
2023-05-12T19:08:49.066Z,100830.44
2023-05-12T19:11:32.931Z,100844.91
2023-05-12T19:14:17.471Z,100822.25
2023-05-12T19:17:01.347Z,100832.09
2023-05-12T19:19:46.786Z,100823.34
2023-05-12T19:22:30.653Z,100829.28
2023-05-12T19:25:17.989Z,100825.94
2023-05-12T19:28:02.148Z,100810.41
2023-05-12T19:30:45.994Z,100825.78
2023-05-12T19:33:30.101Z,100810.72
2023-05-12T19:36:15.461Z,100801.84
2023-05-12T19:39:00.527Z,100805.75
2023-05-12T19:41:44.625Z,100805.13
2023-05-12T19:44:30.020Z,100792.72
2023-05-12T19:47:14.292Z,100788.75
2023-05-12T19:49:58.262Z,100794.06
2023-05-12T19:52:43.375Z,100788.53
2023-05-12T19:55:27.232Z,100792.19
2023-05-12T19:58:11.005Z,100756.34
2023-05-12T20:00:56.107Z,100784.88
2023-05-12T20:03:39.991Z,100795.69
2023-05-12T20:06:25.120Z,100795.31
2023-05-12T20:09:10.445Z,100801.69
2023-05-12T20:11:54.285Z,100805.59
2023-05-12T20:14:38.698Z,100795.28
2023-05-12T20:17:22.698Z,100795.31
2023-05-12T20:20:08.125Z,100790.84
2023-05-12T20:22:52.328Z,100810.00
2023-05-12T20:25:37.754Z,100809.06
2023-05-12T20:28:23.973Z,100805.84
2023-05-12T20:31:09.738Z,100702.47
2023-05-12T20:33:53.619Z,100806.16
2023-05-12T20:36:38.828Z,100805.09
2023-05-12T20:39:22.711Z,100803.59
2023-05-12T20:42:09.964Z,100801.72
2023-05-12T20:44:53.904Z,100804.31
2023-05-12T20:47:37.907Z,100814.06
2023-05-12T20:50:23.818Z,100810.16
2023-05-12T20:53:07.791Z,100781.75
2023-05-12T20:55:51.658Z,100815.25
2023-05-12T20:58:36.927Z,100807.44
2023-05-12T21:01:20.865Z,100781.16
2023-05-12T21:04:04.972Z,100818.78
2023-05-12T21:06:49.582Z,100818.22
2023-05-12T21:09:34.389Z,100817.66
2023-05-12T21:12:18.197Z,100812.38
2023-05-12T21:15:03.356Z,100796.63
2023-05-12T21:17:51.205Z,100810.19
2023-05-12T21:20:35.037Z,100807.59
2023-05-12T21:23:18.905Z,100809.50
2023-05-12T21:26:02.889Z,100813.66
2023-05-12T21:28:46.798Z,100808.03
2023-05-12T21:31:31.977Z,100807.44
2023-05-12T21:34:16.341Z,100802.56
2023-05-12T21:37:00.955Z,100796.31
2023-05-12T21:39:44.980Z,100794.31
2023-05-12T21:42:28.711Z,100797.41
2023-05-12T21:45:13.097Z,100793.47
2023-05-12T21:47:58.255Z,100801.34
2023-05-12T21:50:42.135Z,100805.31
2023-05-12T21:53:25.969Z,100798.78
2023-05-12T21:56:09.758Z,100796.88
2023-05-12T21:58:53.927Z,100803.09
2023-05-12T22:01:37.892Z,100781.66
2023-05-12T22:04:23.176Z,100802.06
2023-05-12T22:07:07.790Z,100803.34
2023-05-12T22:09:52.106Z,100798.59
2023-05-12T22:12:35.949Z,100791.78
2023-05-12T22:15:19.855Z,100786.66
2023-05-12T22:18:03.974Z,100780.09
2023-05-12T22:20:49.283Z,100766.22
2023-05-12T22:23:33.150Z,100756.88
2023-05-12T22:26:16.938Z,100779.50
2023-05-12T22:29:01.291Z,100772.88
2023-05-12T22:31:46.433Z,100772.25
2023-05-12T22:34:30.462Z,100762.75
2023-05-12T22:37:15.624Z,100747.72
2023-05-12T22:39:59.427Z,100764.59
2023-05-12T22:42:43.322Z,100751.63
2023-05-12T22:45:27.171Z,100757.03
2023-05-12T22:48:11.126Z,100768.59
2023-05-12T22:50:55.166Z,100776.75
2023-05-12T22:53:41.637Z,100763.06
2023-05-12T22:56:25.721Z,100769.22
2023-05-12T22:59:09.551Z,100770.38
2023-05-12T23:01:53.292Z,100762.25
2023-05-12T23:04:37.052Z,100760.28
2023-05-12T23:07:20.934Z,100752.16
2023-05-12T23:10:07.549Z,100751.38
2023-05-12T23:12:51.506Z,100728.69
2023-05-12T23:15:35.291Z,100753.66
2023-05-12T23:18:19.558Z,100752.16
2023-05-12T23:21:03.836Z,100754.78
2023-05-12T23:23:47.635Z,100744.50
2023-05-12T23:26:33.028Z,100751.16
2023-05-12T23:29:17.131Z,100747.16
2023-05-12T23:32:01.036Z,100730.00
2023-05-12T23:34:44.902Z,100727.41
2023-05-12T23:37:28.798Z,100743.13
2023-05-12T23:40:13.056Z,100744.91
2023-05-12T23:42:58.189Z,100739.47
2023-05-12T23:45:42.090Z,100743.19
2023-05-12T23:48:26.240Z,100752.63
2023-05-12T23:51:10.167Z,100729.75
2023-05-12T23:53:53.968Z,100757.50
2023-05-12T23:56:37.758Z,100759.19
2023-05-12T23:59:23.019Z,100765.94
